Time;durP1;ratioP1;P1;durP2;ratioP2;P2;SDS_P1;SDS_P2;PMS_P1;PMS_P2;Temp;Humidity;BMP_temperature;BMP_pressure;BME280_temperature;BME280_humidity;BME280_pressure;Samples;Min_cycle;Max_cycle;Signal;HPM_P1;HPM_P2
2022/03/24 00:00:08;;;;;;;34.58;20.50;;;;;;;5.83;54.50;102263.75;690872;28;1368;-94
2022/03/24 00:00:38;;;;;;;35.50;20.95;;;;;;;5.80;54.46;102264.41;695259;28;1308;-94
2022/03/24 00:00:59;;;;;;;36.35;20.60;;;;;;;5.83;54.73;102264.63;693607;28;1279;-94
2022/03/24 00:01:20;;;;;;;34.67;19.92;;;;;;;5.80;54.46;102263.50;691191;28;1329;-94
2022/03/24 00:01:40;;;;;;;33.63;19.93;;;;;;;5.74;54.37;102251.94;690870;28;1283;-94
2022/03/24 00:02:01;;;;;;;32.50;19.65;;;;;;;5.76;54.30;102259.78;693547;28;1256;-95
2022/03/24 00:02:22;;;;;;;34.25;20.20;;;;;;;5.72;54.57;102250.91;690691;28;1337;-94
2022/03/24 00:02:43;;;;;;;33.10;20.10;;;;;;;5.74;54.65;102257.13;690349;28;1174;-94
2022/03/24 00:03:03;;;;;;;34.37;20.20;;;;;;;5.83;54.48;102271.50;688201;28;1236;-94
2022/03/24 00:03:24;;;;;;;33.45;20.10;;;;;;;5.76;54.64;102259.78;688149;28;1274;-95
2022/03/24 00:03:46;;;;;;;34.97;20.42;;;;;;;5.71;54.42;102258.56;690906;28;1045;-94
2022/03/24 00:04:07;;;;;;;33.13;20.17;;;;;;;5.74;54.55;102264.88;690860;28;1241;-93
2022/03/24 00:04:28;;;;;;;32.13;20.05;;;;;;;5.69;54.76;102255.88;690549;28;1611;-94
2022/03/24 00:04:48;;;;;;;32.47;20.42;;;;;;;5.72;54.76;102255.19;696354;28;1155;-94
2022/03/24 00:05:11;;;;;;;33.35;20.80;;;;;;;5.72;54.78;102253.47;693487;28;1983;-94
2022/03/24 00:05:32;;;;;;;32.45;20.17;;;;;;;5.77;54.83;102263.28;693547;28;1260;-94
2022/03/24 00:05:53;;;;;;;33.13;20.15;;;;;;;5.72;54.80;102255.19;693576;28;1245;-92
2022/03/24 00:06:14;;;;;;;35.13;20.98;;;;;;;5.72;54.76;102258.66;695880;28;1230;-94
2022/03/24 00:06:34;;;;;;;35.90;21.20;;;;;;;5.73;54.44;102263.09;693182;28;1112;-94
2022/03/24 00:06:55;;;;;;;36.35;20.65;;;;;;;5.72;54.54;102256.06;696308;28;1190;-94
2022/03/24 00:07:16;;;;;;;35.88;20.58;;;;;;;5.73;54.83;102265.69;690608;28;1251;-94
2022/03/24 00:07:37;;;;;;;38.97;21.42;;;;;;;5.70;54.82;102251.59;693666;28;1161;-94
2022/03/24 00:07:57;;;;;;;37.80;22.07;;;;;;;5.69;54.59;102249.78;693757;28;1165;-94
2022/03/24 00:08:19;;;;;;;37.22;21.75;;;;;;;5.74;54.86;102258.78;693440;28;1280;-94
2022/03/24 00:08:40;;;;;;;36.60;21.50;;;;;;;5.70;54.72;102257.66;693460;28;1769;-94
2022/03/24 00:09:01;;;;;;;35.97;21.40;;;;;;;5.72;54.75;102253.47;693691;28;1272;-94
2022/03/24 00:09:21;;;;;;;38.80;22.35;;;;;;;5.70;54.88;102255.06;695840;28;1394;-94
2022/03/24 00:09:43;;;;;;;40.60;22.20;;;;;;;5.72;54.58;102257.78;690371;28;1277;-94
2022/03/24 00:10:04;;;;;;;42.83;23.13;;;;;;;5.67;54.67;102253.94;688104;28;1283;-94
2022/03/24 00:10:25;;;;;;;44.22;24.60;;;;;;;5.67;54.73;102254.88;688973;28;1412;-94
2022/03/24 00:10:46;;;;;;;45.92;25.73;;;;;;;5.64;54.72;102245.97;696303;28;1305;-94
2022/03/24 00:11:06;;;;;;;52.00;27.93;;;;;;;5.66;54.70;102257.34;690775;28;1292;-94
2022/03/24 00:11:27;;;;;;;59.03;29.92;;;;;;;5.65;54.87;102251.25;694966;28;1258;-94
2022/03/24 00:11:48;;;;;;;63.60;32.25;;;;;;;5.64;54.98;102249.44;693638;28;1360;-94
2022/03/24 00:12:10;;;;;;;63.90;32.40;;;;;;;5.66;54.63;102253.06;693537;28;1157;-94
2022/03/24 00:12:31;;;;;;;70.97;36.22;;;;;;;5.61;54.54;102244.94;692376;28;1289;-92
2022/03/24 00:12:51;;;;;;;79.93;39.00;;;;;;;5.62;55.00;102248.44;693638;28;1267;-94
2022/03/24 00:13:12;;;;;;;88.67;42.07;;;;;;;5.64;54.61;102257.22;688276;28;1137;-94
2022/03/24 00:13:33;;;;;;;93.28;42.20;;;;;;;5.65;54.83;102253.84;689801;28;1266;-93
2022/03/24 00:13:53;;;;;;;106.40;46.63;;;;;;;5.68;54.84;102259.25;690622;28;1802;-94
2022/03/24 00:14:16;;;;;;;114.47;48.90;;;;;;;5.61;54.56;102252.72;693512;28;1192;-94
2022/03/24 00:14:37;;;;;;;128.18;53.47;;;;;;;5.58;54.56;102243.84;696271;28;1362;-94
2022/03/24 00:15:00;;;;;;;149.23;60.08;;;;;;;5.63;54.80;102255.41;693569;28;1191;-94
2022/03/24 00:15:21;;;;;;;161.68;65.72;;;;;;;5.55;54.91;102239.34;690864;28;1545;-94
2022/03/24 00:15:42;;;;;;;172.70;70.70;;;;;;;5.59;54.62;102243.94;696667;28;1397;-94
2022/03/24 00:16:03;;;;;;;180.90;74.68;;;;;;;5.62;54.72;102251.03;696294;28;1179;-94
2022/03/24 00:16:24;;;;;;;186.48;76.97;;;;;;;5.64;54.52;102257.22;692264;28;1237;-94
2022/03/24 00:16:45;;;;;;;186.73;76.10;;;;;;;5.61;54.60;102246.66;696434;28;1326;-94
2022/03/24 00:17:07;;;;;;;187.00;77.35;;;;;;;5.65;54.59;102248.66;693951;28;1649;-94
2022/03/24 00:17:27;;;;;;;188.57;77.60;;;;;;;5.58;54.46;102241.25;691802;28;1206;-94
2022/03/24 00:17:49;;;;;;;191.67;77.20;;;;;;;5.63;54.74;102257.13;688106;28;1170;-94
2022/03/24 00:18:10;;;;;;;186.05;74.47;;;;;;;5.64;54.47;102259.81;688212;28;1405;-94
2022/03/24 00:18:32;;;;;;;183.73;73.82;;;;;;;5.59;54.49;102250.81;693389;28;1203;-94
2022/03/24 00:18:53;;;;;;;174.25;72.13;;;;;;;5.62;54.25;102248.44;695695;28;1378;-94
2022/03/24 00:19:16;;;;;;;169.73;71.47;;;;;;;5.60;54.80;102242.25;690766;28;1135;-94
2022/03/24 00:19:36;;;;;;;169.45;72.00;;;;;;;5.55;54.46;102241.94;690575;28;1256;-94
2022/03/24 00:19:58;;;;;;;176.75;72.38;;;;;;;5.62;54.30;102253.63;693603;28;1234;-95
2022/03/24 00:20:19;;;;;;;171.27;71.45;;;;;;;5.53;54.75;102237.41;693662;28;1333;-94
2022/03/24 00:20:43;;;;;;;163.00;67.28;;;;;;;5.57;54.60;102245.53;687397;28;1802;-94
2022/03/24 00:21:04;;;;;;;165.20;67.68;;;;;;;5.55;54.99;102248.78;692065;28;1198;-94
2022/03/24 00:21:24;;;;;;;161.43;65.20;;;;;;;5.60;54.73;102260.38;693372;28;1280;-94
2022/03/24 00:21:46;;;;;;;160.48;64.10;;;;;;;5.61;54.48;102263.06;690827;28;1288;-94
2022/03/24 00:22:06;;;;;;;149.18;61.70;;;;;;;5.58;54.59;102262.84;690689;28;1853;-94
2022/03/24 00:22:28;;;;;;;150.13;62.40;;;;;;;5.55;54.79;102252.28;696990;28;1455;-94
2022/03/24 00:22:49;;;;;;;149.75;63.38;;;;;;;5.54;54.81;102247.00;693575;28;1199;-93
2022/03/24 00:23:09;;;;;;;142.68;63.03;;;;;;;5.55;54.54;102251.38;693536;28;1302;-94
2022/03/24 00:23:30;;;;;;;138.27;60.83;;;;;;;5.54;54.60;102252.16;690418;28;1248;-95
2022/03/24 00:23:51;;;;;;;131.13;58.42;;;;;;;5.51;54.59;102246.78;693455;28;1178;-94
2022/03/24 00:24:11;;;;;;;131.52;57.15;;;;;;;5.48;54.79;102245.75;696201;28;1494;-94
2022/03/24 00:24:32;;;;;;;124.20;56.63;;;;;;;5.50;55.10;102252.72;692791;28;1430;-94
2022/03/24 00:24:53;;;;;;;123.83;54.80;;;;;;;5.48;54.88;102250.03;688172;28;1966;-94
2022/03/24 00:25:13;;;;;;;122.90;53.92;;;;;;;5.47;54.65;102254.31;691612;28;1269;-94
2022/03/24 00:25:34;;;;;;;124.95;53.00;;;;;;;5.46;54.91;102249.03;690608;28;1398;-94
2022/03/24 00:25:54;;;;;;;120.05;53.80;;;;;;;5.45;54.94;102250.72;695902;28;1908;-94
2022/03/24 00:26:15;;;;;;;120.23;53.67;;;;;;;5.38;54.92;102243.28;693287;28;1271;-94
2022/03/24 00:26:37;;;;;;;119.75;52.85;;;;;;;5.42;55.04;102250.50;693510;28;1317;-93
2022/03/24 00:26:58;;;;;;;122.72;52.10;;;;;;;5.41;54.88;102243.50;691652;28;1309;-94
2022/03/24 00:27:19;;;;;;;122.07;52.63;;;;;;;5.34;55.46;102241.28;690560;28;1242;-94
2022/03/24 00:27:40;;;;;;;122.88;53.75;;;;;;;5.40;55.06;102258.94;688134;28;1276;-94
2022/03/24 00:28:01;;;;;;;116.50;52.35;;;;;;;5.42;54.91;102254.75;690717;28;1485;-94
2022/03/24 00:28:22;;;;;;;116.20;51.50;;;;;;;5.34;55.00;102239.56;688557;28;1328;-94
2022/03/24 00:28:42;;;;;;;111.25;50.22;;;;;;;5.39;55.54;102239.03;690858;28;1158;-93
2022/03/24 00:29:03;;;;;;;111.95;51.20;;;;;;;5.42;55.45;102249.59;693375;28;1252;-94
2022/03/24 00:29:24;;;;;;;107.38;50.92;;;;;;;5.47;55.17;102253.41;691518;28;1233;-94
2022/03/24 00:29:45;;;;;;;109.18;50.88;;;;;;;5.43;55.35;102252.28;693279;28;1172;-94
2022/03/24 00:30:08;;;;;;;109.95;52.20;;;;;;;5.36;55.23;102234.50;693496;28;1202;-94
2022/03/24 00:30:29;;;;;;;113.72;53.00;;;;;;;5.45;55.33;102254.97;692260;28;1291;-94
2022/03/24 00:30:49;;;;;;;114.88;53.03;;;;;;;5.36;55.02;102244.88;690840;28;1275;-94
2022/03/24 00:31:10;;;;;;;114.10;52.30;;;;;;;5.40;55.49;102241.69;690648;28;1222;-94
2022/03/24 00:31:31;;;;;;;117.40;53.88;;;;;;;5.44;55.28;102243.72;693296;28;1290;-93
2022/03/24 00:31:52;;;;;;;119.22;53.90;;;;;;;5.49;55.31;102251.84;690116;28;1310;-94
2022/03/24 00:32:12;;;;;;;122.18;56.00;;;;;;;5.42;55.28;102240.16;690974;28;1162;-94
2022/03/24 00:32:33;;;;;;;120.63;54.97;;;;;;;5.41;55.17;102235.72;696049;28;1189;-94
2022/03/24 00:32:53;;;;;;;124.43;56.10;;;;;;;5.44;55.44;102246.31;696228;28;1169;-94
2022/03/24 00:33:14;;;;;;;123.53;55.15;;;;;;;5.46;55.05;102251.63;690793;28;1207;-94
2022/03/24 00:33:36;;;;;;;122.00;55.23;;;;;;;5.42;55.43;102245.31;692202;28;1601;-95
2022/03/24 00:33:57;;;;;;;123.68;55.47;;;;;;;5.42;55.33;102250.50;688026;28;1317;-94
2022/03/24 00:34:18;;;;;;;129.07;58.30;;;;;;;5.45;55.42;102248.13;690957;28;1256;-94
2022/03/24 00:34:39;;;;;;;131.95;60.35;;;;;;;5.42;55.46;102245.31;693672;28;1241;-94
2022/03/24 00:35:02;;;;;;;136.88;64.43;;;;;;;5.45;55.05;102250.72;693633;28;1290;-94
2022/03/24 00:35:24;;;;;;;142.23;65.95;;;;;;;5.40;55.23;102239.09;693501;28;1272;-94
2022/03/24 00:35:46;;;;;;;143.07;65.38;;;;;;;5.48;55.19;102260.41;691055;28;1321;-94
2022/03/24 00:36:10;;;;;;;141.10;65.75;;;;;;;5.43;55.44;102252.28;693545;28;1336;-94
2022/03/24 00:36:31;;;;;;;141.48;69.47;;;;;;;5.43;55.32;102252.28;688835;28;1265;-94
2022/03/24 00:36:52;;;;;;;147.63;71.72;;;;;;;5.39;55.02;102247.66;690859;28;1280;-94
2022/03/24 00:37:12;;;;;;;151.35;72.55;;;;;;;5.36;54.90;102238.78;690978;28;1267;-94
2022/03/24 00:37:33;;;;;;;150.38;69.97;;;;;;;5.37;54.94;102236.31;693111;28;1180;-94
2022/03/24 00:37:54;;;;;;;142.87;66.43;;;;;;;5.36;54.80;102229.34;693417;28;1218;-95
2022/03/24 00:38:14;;;;;;;139.90;65.63;;;;;;;5.37;55.05;102249.25;690600;28;1329;-94
2022/03/24 00:38:35;;;;;;;137.13;63.67;;;;;;;5.31;54.97;102236.78;696188;28;1291;-94
2022/03/24 00:38:55;;;;;;;129.57;61.90;;;;;;;5.33;55.10;102244.63;693400;28;1204;-93
2022/03/24 00:39:16;;;;;;;123.00;59.95;;;;;;;5.30;55.32;102239.22;690515;28;1208;-92
2022/03/24 00:39:36;;;;;;;119.72;57.42;;;;;;;5.33;55.22;102245.53;695729;28;1589;-94
2022/03/24 00:40:00;;;;;;;111.93;54.80;;;;;;;5.33;55.22;102240.38;694926;28;1259;-94
2022/03/24 00:40:21;;;;;;;110.82;51.63;;;;;;;5.33;55.09;102239.44;690029;28;1223;-94
2022/03/24 00:40:41;;;;;;;104.10;49.88;;;;;;;5.34;55.32;102246.44;685533;28;1173;-94
2022/03/24 00:41:02;;;;;;;99.83;46.90;;;;;;;5.25;55.19;102227.63;685209;28;1279;-94
2022/03/24 00:41:23;;;;;;;95.00;46.35;;;;;;;5.33;55.48;102247.22;687019;28;1306;-94
2022/03/24 00:41:44;;;;;;;97.25;46.30;;;;;;;5.36;55.61;102247.47;693388;28;1271;-95
2022/03/24 00:42:11;;;;;;;99.70;47.55;;;;;;;5.26;55.21;102232.00;690813;28;1566;-94
2022/03/24 00:42:31;;;;;;;98.18;47.00;;;;;;;5.26;55.55;102237.19;687266;28;1454;-94
2022/03/24 00:42:52;;;;;;;93.80;47.38;;;;;;;5.30;55.23;102249.59;693372;28;1279;-94
2022/03/24 00:43:13;;;;;;;92.17;47.83;;;;;;;5.26;55.33;102232.00;693592;28;1279;-94
2022/03/24 00:43:35;;;;;;;94.32;49.58;;;;;;;5.25;55.65;102235.41;694264;28;1729;-94
2022/03/24 00:43:56;;;;;;;98.50;50.10;;;;;;;5.28;55.31;102246.88;693443;28;1279;-94
2022/03/24 00:44:18;;;;;;;100.07;49.25;;;;;;;5.23;55.18;102234.38;693220;28;1214;-94
2022/03/24 00:44:44;;;;;;;99.18;48.28;;;;;;;5.26;55.26;102239.78;693921;28;1240;-94
2022/03/24 00:45:07;;;;;;;91.55;46.35;;;;;;;5.31;55.61;102251.38;696177;28;1967;-94
2022/03/24 00:45:29;;;;;;;92.15;46.45;;;;;;;5.27;55.30;102254.56;694918;28;1317;-94
2022/03/24 00:45:52;;;;;;;96.35;47.45;;;;;;;5.26;55.75;102245.88;693603;28;1255;-94
2022/03/24 00:46:12;;;;;;;94.78;47.08;;;;;;;5.25;55.47;102241.47;699123;28;1235;-94
2022/03/24 00:46:33;;;;;;;83.78;43.10;;;;;;;5.24;55.28;102244.88;696157;28;1279;-94
2022/03/24 00:46:55;;;;;;;76.00;39.97;;;;;;;5.29;55.63;102255.56;696279;28;1299;-94
2022/03/24 00:47:16;;;;;;;69.82;37.78;;;;;;;5.26;55.27;102252.72;693323;28;1284;-94
2022/03/24 00:47:37;;;;;;;71.03;37.40;;;;;;;5.24;55.47;102251.72;690742;28;1230;-94
2022/03/24 00:47:57;;;;;;;66.10;35.73;;;;;;;5.23;55.75;102244.75;695200;28;1254;-94
2022/03/24 00:48:18;;;;;;;64.65;34.30;;;;;;;5.16;55.61;102236.53;691115;28;1280;-94
2022/03/24 00:48:40;;;;;;;60.67;32.63;;;;;;;5.18;55.34;102229.78;693660;28;1850;-94
2022/03/24 00:49:01;;;;;;;63.28;33.42;;;;;;;5.25;55.28;102246.66;693515;28;1227;-94
2022/03/24 00:49:22;;;;;;;64.70;34.42;;;;;;;5.26;55.21;102255.31;695470;28;1204;-94
2022/03/24 00:49:43;;;;;;;68.65;36.47;;;;;;;5.18;55.16;102237.56;690372;28;1278;-94
2022/03/24 00:50:05;;;;;;;70.20;37.30;;;;;;;5.27;55.52;102249.38;693408;28;1312;-94
2022/03/24 00:50:25;;;;;;;74.35;38.72;;;;;;;5.29;55.43;102248.69;690256;28;1358;-94
2022/03/24 00:50:46;;;;;;;82.27;41.00;;;;;;;5.25;55.30;102246.66;692996;28;1943;-94
2022/03/24 00:51:07;;;;;;;89.20;41.70;;;;;;;5.29;54.89;102247.78;693638;28;1196;-94
2022/03/24 00:51:28;;;;;;;90.50;41.28;;;;;;;5.32;55.13;102250.59;697426;28;1299;-94
2022/03/24 00:51:49;;;;;;;86.85;40.47;;;;;;;5.27;55.09;102239.03;693307;28;1385;-94
2022/03/24 00:52:10;;;;;;;81.30;41.30;;;;;;;5.31;55.04;102243.63;693498;28;1297;-94
2022/03/24 00:52:31;;;;;;;78.75;41.45;;;;;;;5.30;55.09;102241.81;696377;28;1230;-94
2022/03/24 00:52:52;;;;;;;76.45;41.15;;;;;;;5.33;54.69;102247.22;693447;28;1228;-93
2022/03/24 00:53:13;;;;;;;79.40;41.25;;;;;;;5.25;55.04;102231.13;690964;28;1193;-94
2022/03/24 00:53:33;;;;;;;83.33;42.00;;;;;;;5.29;54.75;102242.63;695820;28;1190;-94
2022/03/24 00:53:54;;;;;;;87.13;43.30;;;;;;;5.30;54.98;102239.22;693202;28;1215;-94
2022/03/24 00:54:18;;;;;;;83.65;43.10;;;;;;;5.30;54.73;102240.16;688273;28;1251;-94
2022/03/24 00:54:39;;;;;;;79.15;42.60;;;;;;;5.31;55.07;102238.44;691089;28;827;-94
2022/03/24 00:54:59;;;;;;;75.30;41.15;;;;;;;5.29;54.90;102247.78;693894;28;1389;-94
2022/03/24 00:55:20;;;;;;;79.40;41.60;;;;;;;5.24;54.90;102233.59;693739;28;1276;-94
2022/03/24 00:55:41;;;;;;;86.35;41.95;;;;;;;5.31;54.99;102241.94;693740;28;1265;-94
2022/03/24 00:56:03;;;;;;;92.68;45.20;;;;;;;5.28;55.06;102240.81;690911;28;1228;-94
2022/03/24 00:56:24;;;;;;;93.40;46.05;;;;;;;5.24;55.02;102233.59;695335;28;1243;-94
2022/03/24 00:56:48;;;;;;;92.70;47.70;;;;;;;5.26;54.76;102230.34;690903;28;1310;-95
2022/03/24 00:57:09;;;;;;;91.85;47.15;;;;;;;5.26;55.13;102240.69;685612;28;1375;-94
2022/03/24 00:57:31;;;;;;;99.78;49.67;;;;;;;5.29;55.17;102242.63;687319;28;1382;-94
2022/03/24 00:57:53;;;;;;;106.18;52.15;;;;;;;5.27;54.93;102233.84;692952;28;873;-94
2022/03/24 00:58:13;;;;;;;109.20;52.72;;;;;;;5.25;55.03;102233.72;690506;28;1278;-94
2022/03/24 00:58:34;;;;;;;106.75;51.15;;;;;;;5.26;54.92;102242.38;693452;28;1178;-95
2022/03/24 00:58:55;;;;;;;106.63;48.55;;;;;;;5.26;55.24;102238.09;688000;28;1158;-94
2022/03/24 00:59:15;;;;;;;105.30;47.30;;;;;;;5.24;55.22;102233.59;693886;28;1185;-94
2022/03/24 00:59:36;;;;;;;103.57;46.33;;;;;;;5.27;54.77;102239.91;693102;28;1298;-94
2022/03/24 00:59:57;;;;;;;96.83;46.60;;;;;;;5.23;54.56;102234.38;695936;28;1393;-95
2022/03/24 01:00:20;;;;;;;91.93;46.23;;;;;;;5.25;55.00;102237.97;698677;28;1401;-94
2022/03/24 01:00:42;;;;;;;89.03;46.25;;;;;;;5.22;55.17;102236.09;696380;28;1640;-94
2022/03/24 01:01:03;;;;;;;90.95;45.38;;;;;;;5.17;55.24;102229.66;688145;28;1401;-94
2022/03/24 01:01:23;;;;;;;93.70;45.23;;;;;;;5.16;55.22;102221.00;690505;28;1283;-94
2022/03/24 01:01:44;;;;;;;93.07;45.42;;;;;;;5.20;54.99;102232.47;688003;28;1212;-95
2022/03/24 01:02:09;;;;;;;90.30;45.15;;;;;;;5.18;55.12;102229.78;690745;28;1304;-94
2022/03/24 01:02:31;;;;;;;94.13;45.75;;;;;;;5.25;55.33;102245.75;689446;28;1366;-94
2022/03/24 01:02:53;;;;;;;94.75;46.97;;;;;;;5.16;55.29;102225.28;693298;28;1192;-94
2022/03/24 01:03:15;;;;;;;98.10;47.75;;;;;;;5.20;55.25;102235.06;693559;28;1245;-94
2022/03/24 01:03:36;;;;;;;93.55;47.05;;;;;;;5.19;54.97;102235.84;696184;28;1331;-94
2022/03/24 01:03:57;;;;;;;98.88;47.58;;;;;;;5.18;55.15;102229.78;690971;28;1233;-94
2022/03/24 01:04:17;;;;;;;101.85;48.90;;;;;;;5.23;55.53;102243.06;693106;28;1291;-94
2022/03/24 01:04:40;;;;;;;104.35;50.10;;;;;;;5.18;54.99;102237.56;690618;28;1781;-94
2022/03/24 01:05:02;;;;;;;102.35;50.20;;;;;;;5.17;55.36;102235.72;690843;28;1915;-94
2022/03/24 01:05:29;;;;;;;103.90;50.47;;;;;;;5.14;55.08;102234.59;696319;28;1278;-94
2022/03/24 01:05:50;;;;;;;99.18;48.95;;;;;;;5.17;55.39;102240.03;690967;28;1188;-94
2022/03/24 01:06:16;;;;;;;96.00;46.95;;;;;;;5.15;55.44;102239.91;690703;28;1394;-94
2022/03/24 01:06:37;;;;;;;89.50;44.42;;;;;;;5.11;55.34;102229.22;693605;28;1258;-94
2022/03/24 01:06:59;;;;;;;90.97;43.88;;;;;;;5.12;55.47;102233.59;688143;28;1165;-94
2022/03/24 01:07:19;;;;;;;92.73;45.53;;;;;;;5.11;55.35;102237.88;690858;28;1111;-93
2022/03/24 01:07:40;;;;;;;98.40;47.63;;;;;;;5.10;55.33;102238.69;696232;28;1234;-94
2022/03/24 01:08:01;;;;;;;102.88;49.10;;;;;;;5.07;55.42;102229.00;696207;28;825;-94
2022/03/24 01:08:22;;;;;;;102.20;49.00;;;;;;;5.18;55.14;102249.59;695429;28;1250;-94
2022/03/24 01:08:43;;;;;;;104.20;50.38;;;;;;;5.18;55.36;102255.69;690714;28;1190;-94
2022/03/24 01:09:05;;;;;;;105.95;51.60;;;;;;;5.07;55.75;102235.84;690802;28;1262;-94
2022/03/24 01:09:25;;;;;;;109.70;52.20;;;;;;;5.11;55.43;102236.97;691913;28;1370;-94
2022/03/24 01:09:46;;;;;;;102.28;50.42;;;;;;;5.07;55.68;102241.94;690539;28;1190;-95
2022/03/24 01:10:07;;;;;;;104.07;50.20;;;;;;;5.10;55.60;102243.84;693401;28;1193;-94
2022/03/24 01:10:27;;;;;;;106.40;51.08;;;;;;;5.05;55.77;102227.06;693519;28;1212;-94
2022/03/24 01:10:49;;;;;;;108.00;50.78;;;;;;;5.05;55.85;102234.84;690950;28;1406;-94
2022/03/24 01:11:10;;;;;;;105.60;49.90;;;;;;;5.05;55.85;102232.25;693373;28;1242;-95
2022/03/24 01:11:31;;;;;;;105.18;48.35;;;;;;;5.11;55.83;102240.47;690685;28;1295;-93
2022/03/24 01:11:52;;;;;;;105.30;47.72;;;;;;;5.05;55.77;102237.44;696201;28;1346;-94
2022/03/24 01:12:18;;;;;;;105.20;48.35;;;;;;;5.06;55.61;102241.81;693478;28;1187;-94
2022/03/24 01:12:39;;;;;;;104.35;49.35;;;;;;;5.00;56.04;102228.41;690835;28;1435;-94
2022/03/24 01:13:00;;;;;;;100.00;49.17;;;;;;;4.97;56.00;102233.38;687963;28;1169;-94
2022/03/24 01:13:21;;;;;;;98.27;48.43;;;;;;;5.00;55.88;102233.59;691913;28;1131;-94
2022/03/24 01:13:43;;;;;;;102.40;49.83;;;;;;;4.98;55.98;102237.75;690916;28;1055;-94
2022/03/24 01:14:05;;;;;;;106.45;51.13;;;;;;;5.06;55.81;102250.50;699246;28;1374;-94
2022/03/24 01:14:25;;;;;;;110.80;52.50;;;;;;;5.07;56.29;102254.88;696178;28;1700;-94
2022/03/24 01:14:46;;;;;;;105.18;49.88;;;;;;;4.97;56.11;102228.19;690846;28;1147;-93
2022/03/24 01:15:08;;;;;;;105.40;49.13;;;;;;;5.00;56.23;102244.84;687930;28;1216;-94
2022/03/24 01:15:30;;;;;;;108.13;49.90;;;;;;;4.95;56.07;102232.38;690606;28;1631;-94
2022/03/24 01:15:50;;;;;;;110.68;52.13;;;;;;;4.95;56.15;102234.94;688308;28;1451;-94
2022/03/24 01:16:13;;;;;;;106.13;51.47;;;;;;;4.97;56.36;102238.53;691032;28;1255;-94
2022/03/24 01:16:35;;;;;;;103.50;50.97;;;;;;;4.93;56.31;102235.72;695913;28;1174;-94
2022/03/24 01:17:07;;;;;;;105.72;51.13;;;;;;;5.00;56.32;102250.03;703744;27;20537;-96
2022/03/24 01:17:29;;;;;;;108.05;52.85;;;;;;;4.91;55.85;102231.22;697613;28;1297;-95
2022/03/24 01:17:50;;;;;;;106.88;52.05;;;;;;;5.01;56.03;102257.00;690517;28;1210;-95
2022/03/24 01:18:14;;;;;;;112.22;52.65;;;;;;;4.96;56.43;102241.91;693159;28;1274;-95
2022/03/24 01:18:34;;;;;;;107.88;51.92;;;;;;;4.89;56.39;102231.09;692922;28;1449;-95
2022/03/24 01:18:57;;;;;;;106.76;51.30;;;;;;;4.89;56.36;102235.38;694309;28;1359;-96
2022/03/24 01:19:18;;;;;;;106.77;50.37;;;;;;;4.93;56.20;102240.00;695589;28;1282;-95
2022/03/24 01:19:38;;;;;;;108.22;49.47;;;;;;;4.95;56.52;102245.31;695226;28;1599;-96
2022/03/24 01:19:59;;;;;;;102.25;48.67;;;;;;;4.96;56.58;102252.28;698465;28;1445;-95
2022/03/24 01:20:21;;;;;;;101.27;49.40;;;;;;;4.89;56.46;102240.53;695676;28;1193;-95
2022/03/24 01:20:42;;;;;;;98.70;50.00;;;;;;;4.88;56.25;102238.75;695852;28;1365;-94
2022/03/24 01:21:04;;;;;;;102.63;49.53;;;;;;;4.85;56.66;102228.19;690320;28;1344;-95
2022/03/24 01:21:25;;;;;;;100.13;48.67;;;;;;;4.91;56.60;102245.06;693031;28;1272;-96
2022/03/24 01:21:46;;;;;;;101.72;49.10;;;;;;;4.89;56.67;102241.47;695850;28;1286;-96
2022/03/24 01:22:07;;;;;;;96.25;47.97;;;;;;;4.91;56.54;102245.06;695768;28;1202;-96
2022/03/24 01:22:27;;;;;;;98.10;47.30;;;;;;;4.87;56.23;102232.69;694136;28;1185;-96
2022/03/24 01:22:48;;;;;;;98.32;46.63;;;;;;;4.87;56.44;102245.63;695647;28;1363;-95
2022/03/24 01:23:11;;;;;;;99.43;46.83;;;;;;;4.88;56.34;102236.16;695447;28;1407;-95
2022/03/24 01:23:32;;;;;;;93.07;46.10;;;;;;;4.91;56.25;102239.00;697179;28;1298;-95
2022/03/24 01:23:53;;;;;;;96.50;46.70;;;;;;;4.93;56.48;102246.06;690176;28;1390;-96
2022/03/24 01:24:13;;;;;;;96.03;46.38;;;;;;;4.83;56.37;102228.06;693090;28;1300;-96
2022/03/24 01:24:38;;;;;;;100.88;45.63;;;;;;;4.93;56.35;102240.88;697587;28;1448;-95
2022/03/24 01:24:59;;;;;;;97.68;44.28;;;;;;;4.86;56.70;102236.06;690509;28;1209;-96
2022/03/24 01:25:20;;;;;;;96.95;44.92;;;;;;;4.88;56.51;102238.75;695399;28;1312;-95
2022/03/24 01:25:44;;;;;;;88.22;44.47;;;;;;;4.84;56.53;102234.16;695595;28;1838;-95
2022/03/24 01:26:05;;;;;;;84.07;44.10;;;;;;;4.86;56.56;102233.47;695786;28;1264;-96
2022/03/24 01:26:26;;;;;;;85.60;42.95;;;;;;;4.83;56.55;102233.22;691576;28;1260;-96
2022/03/24 01:26:46;;;;;;;81.53;41.33;;;;;;;4.84;56.56;102231.56;695477;28;1695;-96
2022/03/24 01:27:10;;;;;;;83.15;41.55;;;;;;;4.82;56.54;102228.84;695641;28;1231;-95
2022/03/24 01:27:32;;;;;;;81.88;41.70;;;;;;;4.84;56.69;102232.44;690079;28;1323;-96
2022/03/24 01:27:53;;;;;;;84.82;41.67;;;;;;;4.79;56.64;102224.34;693030;28;1488;-96
2022/03/24 01:28:15;;;;;;;81.32;41.20;;;;;;;4.87;56.58;102242.13;690200;28;1259;-95
2022/03/24 01:28:36;;;;;;;78.43;40.28;;;;;;;4.81;56.77;102227.03;696358;28;1455;-95
2022/03/24 01:28:57;;;;;;;77.40;40.42;;;;;;;4.84;56.59;102242.78;692958;28;1181;-95
2022/03/24 01:29:22;;;;;;;72.55;39.05;;;;;;;4.82;56.93;102239.19;689594;28;1532;-95
2022/03/24 01:29:44;;;;;;;70.50;38.90;;;;;;;4.83;56.68;102245.28;695326;28;975;-96
2022/03/24 01:30:10;;;;;;;67.30;37.00;;;;;;;4.82;56.70;102236.59;694496;28;1286;-95
2022/03/24 01:30:32;;;;;;;65.65;35.53;;;;;;;4.74;56.70;102227.38;697991;28;1395;-93
2022/03/24 01:30:54;;;;;;;67.90;35.88;;;;;;;4.81;57.04;102228.72;695744;28;1341;-96
2022/03/24 01:31:16;;;;;;;67.15;35.95;;;;;;;4.80;57.15;102240.78;698484;28;1149;-94
2022/03/24 01:31:42;;;;;;;64.85;34.50;;;;;;;4.76;56.94;102229.28;693010;28;1327;-96
2022/03/24 01:32:03;;;;;;;63.42;33.30;;;;;;;4.72;56.95;102231.53;692888;28;1524;-95
2022/03/24 01:32:26;;;;;;;66.55;34.70;;;;;;;4.78;56.79;102231.97;697653;28;1262;-95
2022/03/24 01:32:47;;;;;;;64.07;33.90;;;;;;;4.77;56.77;102237.94;695705;28;1270;-96
2022/03/24 01:33:08;;;;;;;63.97;33.63;;;;;;;4.69;57.01;102227.03;695370;28;1180;-96
2022/03/24 01:33:30;;;;;;;61.80;32.40;;;;;;;4.76;57.08;102233.53;693279;28;1500;-96
2022/03/24 01:33:52;;;;;;;59.70;32.13;;;;;;;4.75;56.87;102236.91;695701;28;1464;-95
2022/03/24 01:34:13;;;;;;;62.40;32.65;;;;;;;4.73;56.84;102230.75;695697;28;1266;-95
2022/03/24 01:34:35;;;;;;;62.13;33.15;;;;;;;4.72;57.10;102229.81;695369;28;1114;-96
2022/03/24 01:34:56;;;;;;;60.33;33.40;;;;;;;4.67;56.98;102218.25;692903;28;1812;-95
2022/03/24 01:35:17;;;;;;;61.95;34.47;;;;;;;4.74;57.09;102232.53;698200;28;1365;-95
2022/03/24 01:35:37;;;;;;;62.33;34.30;;;;;;;4.74;56.97;102227.38;695052;28;1211;-95
2022/03/24 01:35:58;;;;;;;65.82;34.95;;;;;;;4.69;56.80;102227.03;695741;28;1265;-96
2022/03/24 01:36:18;;;;;;;65.90;34.00;;;;;;;4.73;56.81;102228.16;698166;28;1184;-96
2022/03/24 01:36:39;;;;;;;68.03;34.95;;;;;;;4.70;56.74;102226.22;698312;28;1729;-96
2022/03/24 01:37:02;;;;;;;64.50;34.25;;;;;;;4.70;57.17;102231.41;695698;28;1340;-95
2022/03/24 01:37:24;;;;;;;64.45;34.15;;;;;;;4.63;57.16;102217.13;695840;28;1414;-96
2022/03/24 01:37:44;;;;;;;62.72;33.75;;;;;;;4.69;56.88;102228.69;693067;28;1788;-96
2022/03/24 01:38:05;;;;;;;62.47;34.13;;;;;;;4.64;56.79;102229.25;692849;28;1276;-96
2022/03/24 01:38:25;;;;;;;63.40;33.50;;;;;;;4.68;57.20;102229.47;692844;28;1268;-94
2022/03/24 01:38:46;;;;;;;63.80;33.63;;;;;;;4.65;56.79;102222.38;692886;28;1175;-96
2022/03/24 01:39:07;;;;;;;65.70;33.63;;;;;;;4.60;56.81;102213.41;695525;28;1305;-95
2022/03/24 01:39:28;;;;;;;64.97;33.85;;;;;;;4.67;56.97;102238.03;695597;28;1380;-95
2022/03/24 01:39:48;;;;;;;63.35;32.33;;;;;;;4.70;56.82;102243.41;695285;28;1213;-95
2022/03/24 01:40:11;;;;;;;61.17;31.48;;;;;;;4.62;56.90;102220.50;695518;28;1453;-95